createdAt,value
2023-03-22T00:00:00.715Z,22.13
2023-03-22T00:02:27.719Z,23.00
2023-03-22T00:04:55.469Z,21.73
2023-03-22T00:07:22.436Z,21.88
2023-03-22T00:09:49.478Z,19.98
2023-03-22T00:12:16.423Z,20.13
2023-03-22T00:14:43.403Z,20.63
2023-03-22T00:17:10.365Z,21.58
2023-03-22T00:19:37.576Z,22.70
2023-03-22T00:22:06.409Z,22.25
2023-03-22T00:24:33.417Z,22.45
2023-03-22T00:27:01.167Z,22.13
2023-03-22T00:29:28.182Z,22.50
2023-03-22T00:31:56.418Z,21.45
2023-03-22T00:34:23.725Z,20.30
2023-03-22T00:36:52.161Z,19.40
2023-03-22T00:39:19.217Z,19.42
2023-03-22T00:41:46.193Z,19.10
2023-03-22T00:44:13.178Z,19.25
2023-03-22T00:46:40.130Z,18.58
2023-03-22T00:49:07.130Z,19.45
2023-03-22T00:51:34.199Z,18.98
2023-03-22T00:54:01.317Z,18.98
2023-03-22T00:56:29.073Z,18.92
2023-03-22T00:58:56.391Z,18.73
2023-03-22T01:01:23.597Z,19.73
2023-03-22T01:03:50.926Z,19.15
2023-03-22T01:06:18.346Z,18.17
2023-03-22T01:08:45.397Z,18.50
2023-03-22T01:11:12.679Z,18.80
2023-03-22T01:13:41.974Z,18.48
2023-03-22T01:16:10.135Z,18.50
2023-03-22T01:18:37.508Z,18.40
2023-03-22T01:21:05.289Z,17.95
2023-03-22T01:23:32.490Z,18.27
2023-03-22T01:25:59.699Z,18.40
2023-03-22T01:28:27.379Z,18.10
2023-03-22T01:30:55.057Z,18.33
2023-03-22T01:33:22.285Z,18.20
2023-03-22T01:35:49.257Z,18.30
2023-03-22T01:38:16.254Z,18.30
2023-03-22T01:40:43.205Z,18.50
2023-03-22T01:43:17.377Z,18.95
2023-03-22T01:48:34.410Z,18.63
2023-03-22T01:51:04.396Z,18.10
2023-03-22T01:53:35.355Z,18.83
2023-03-22T01:56:03.466Z,19.02
2023-03-22T01:58:32.416Z,18.50
2023-03-22T02:00:59.811Z,18.70
2023-03-22T02:04:02.243Z,18.50
2023-03-22T02:06:32.518Z,18.58
2023-03-22T02:08:59.668Z,19.30
2023-03-22T02:11:42.190Z,19.50
2023-03-22T02:14:13.586Z,20.05
2023-03-22T02:17:17.380Z,19.65
2023-03-22T02:20:10.864Z,19.75
2023-03-22T02:22:53.210Z,19.60
2023-03-22T02:25:45.120Z,19.23
2023-03-22T02:28:24.008Z,19.30
2023-03-22T02:31:01.095Z,20.35
2023-03-22T02:33:55.227Z,19.80
2023-03-22T02:36:32.714Z,18.63
2023-03-22T02:39:14.726Z,20.55
2023-03-22T02:42:00.773Z,20.48
2023-03-22T02:44:46.181Z,20.83
2023-03-22T02:58:10.772Z,20.65
2023-03-22T03:00:39.071Z,20.77
2023-03-22T03:03:11.618Z,20.25
2023-03-22T03:05:43.067Z,20.95
2023-03-22T03:08:12.475Z,21.67
2023-03-22T03:10:42.104Z,21.48
2023-03-22T03:13:19.355Z,20.85
2023-03-22T03:15:54.515Z,21.05
2023-03-22T03:18:48.507Z,21.15
2023-03-22T03:21:30.280Z,21.60
2023-03-22T03:24:21.379Z,21.65
2023-03-22T03:27:27.542Z,22.10
2023-03-22T03:30:03.344Z,21.63
2023-03-22T03:32:38.000Z,21.77
2023-03-22T03:35:18.099Z,22.23
2023-03-22T03:37:53.772Z,21.48
2023-03-22T03:40:29.047Z,21.35
2023-03-22T03:42:59.161Z,22.45
2023-03-22T03:45:26.339Z,21.63
2023-03-22T03:47:58.291Z,21.65
2023-03-22T03:50:26.792Z,21.55
2023-03-22T03:52:55.247Z,21.88
2023-03-22T03:55:23.662Z,21.50
2023-03-22T03:57:50.771Z,21.55
2023-03-22T04:00:18.472Z,21.83
2023-03-22T04:02:45.682Z,22.30
2023-03-22T04:05:13.829Z,21.92
2023-03-22T04:07:41.860Z,22.75
2023-03-22T04:10:09.589Z,22.45
2023-03-22T04:12:36.605Z,22.33
2023-03-22T04:15:03.625Z,22.95
2023-03-22T04:17:32.226Z,22.27
2023-03-22T04:19:59.268Z,23.60
2023-03-22T04:22:26.822Z,22.17
2023-03-22T04:24:53.845Z,24.42
2023-03-22T04:27:22.461Z,23.75
2023-03-22T04:29:51.323Z,23.55
2023-03-22T04:32:19.188Z,23.92
2023-03-22T04:34:49.352Z,23.35
2023-03-22T04:37:17.282Z,24.13
2023-03-22T04:39:44.784Z,22.92
2023-03-22T04:42:12.272Z,23.33
2023-03-22T04:44:39.393Z,22.88
2023-03-22T04:47:06.350Z,21.92
2023-03-22T04:49:33.646Z,23.27
2023-03-22T04:52:00.771Z,22.65
2023-03-22T04:54:28.113Z,23.23
2023-03-22T04:56:55.088Z,22.88
2023-03-22T04:59:22.134Z,23.15
2023-03-22T05:01:50.468Z,22.98
2023-03-22T05:04:18.349Z,22.42
2023-03-22T05:06:45.977Z,21.92
2023-03-22T05:09:13.382Z,22.23
2023-03-22T05:11:40.854Z,24.02
2023-03-22T05:14:09.359Z,23.33
2023-03-22T05:16:37.166Z,22.58
2023-03-22T05:19:04.135Z,22.70
2023-03-22T05:21:36.763Z,23.85
2023-03-22T05:24:04.325Z,23.48
2023-03-22T05:26:31.388Z,22.83
2023-03-22T05:28:58.722Z,23.25
2023-03-22T05:31:28.740Z,23.48
2023-03-22T05:33:55.958Z,24.13
2023-03-22T05:36:23.780Z,24.65
2023-03-22T05:38:51.194Z,24.85
2023-03-22T05:41:19.503Z,23.75
2023-03-22T05:43:46.518Z,23.80
2023-03-22T05:46:13.593Z,22.00
2023-03-22T05:48:41.378Z,21.00
2023-03-22T05:51:10.335Z,20.40
2023-03-22T05:53:37.326Z,23.98
2023-03-22T05:56:04.534Z,28.73
2023-03-22T05:58:32.051Z,27.30
2023-03-22T06:01:06.100Z,22.85
2023-03-22T06:06:01.027Z,21.70
2023-03-22T06:08:28.069Z,22.42
2023-03-22T06:10:55.016Z,20.60
2023-03-22T06:13:22.183Z,19.75
2023-03-22T06:15:49.165Z,19.92
2023-03-22T06:18:16.413Z,20.35
2023-03-22T06:20:43.923Z,20.15
2023-03-22T06:23:10.930Z,18.40
2023-03-22T06:25:37.958Z,19.17
2023-03-22T06:28:06.953Z,19.67
2023-03-22T06:30:35.683Z,19.40
2023-03-22T06:33:05.252Z,18.35
2023-03-22T06:35:33.687Z,17.75
2023-03-22T06:38:02.131Z,17.55
2023-03-22T06:40:29.327Z,17.02
2023-03-22T06:42:56.302Z,17.23
2023-03-22T06:45:23.315Z,20.05
2023-03-22T06:47:50.822Z,18.70
2023-03-22T06:50:17.965Z,18.02
2023-03-22T06:52:44.947Z,16.83
2023-03-22T06:55:11.881Z,16.20
2023-03-22T06:57:38.887Z,15.63
2023-03-22T07:00:06.724Z,15.48
2023-03-22T07:02:33.765Z,15.35
2023-03-22T07:05:00.706Z,15.75
2023-03-22T07:07:27.646Z,15.15
2023-03-22T07:09:54.875Z,14.80
2023-03-22T07:12:21.812Z,15.38
2023-03-22T07:14:49.283Z,15.38
2023-03-22T07:17:16.607Z,15.30
2023-03-22T07:19:45.059Z,15.70
2023-03-22T07:22:12.118Z,15.00
2023-03-22T07:24:50.318Z,14.90
2023-03-22T07:27:21.257Z,15.10
2023-03-22T07:29:48.273Z,14.95
2023-03-22T07:32:16.604Z,15.20
2023-03-22T07:34:43.678Z,15.90
2023-03-22T07:37:10.940Z,14.77
2023-03-22T07:39:37.987Z,15.10
2023-03-22T07:42:05.042Z,14.93
2023-03-22T07:44:32.129Z,14.95
2023-03-22T07:46:59.200Z,15.23
2023-03-22T07:49:27.357Z,15.10
2023-03-22T07:51:54.301Z,14.57
2023-03-22T07:54:32.835Z,15.00
2023-03-22T07:57:01.244Z,14.82
2023-03-22T07:59:28.367Z,14.75
2023-03-22T08:01:55.408Z,14.82
2023-03-22T08:04:22.729Z,15.48
2023-03-22T08:06:50.099Z,14.88
2023-03-22T08:09:17.557Z,14.90
2023-03-22T08:11:44.561Z,14.38
2023-03-22T08:14:11.695Z,14.50
2023-03-22T08:16:38.843Z,14.30
2023-03-22T08:19:06.125Z,14.60
2023-03-22T08:21:33.257Z,14.02
2023-03-22T08:24:00.483Z,14.48
2023-03-22T08:26:27.960Z,14.18
2023-03-22T08:28:55.032Z,14.27
2023-03-22T08:31:22.618Z,14.63
2023-03-22T08:33:49.766Z,14.73
2023-03-22T08:36:19.367Z,14.57
2023-03-22T08:38:46.550Z,14.48
2023-03-22T08:41:13.755Z,14.60
2023-03-22T08:43:40.814Z,14.88
2023-03-22T08:46:08.032Z,14.85
2023-03-22T08:48:38.101Z,15.18
2023-03-22T08:51:06.595Z,15.15
2023-03-22T08:53:33.910Z,15.02
2023-03-22T09:12:14.760Z,13.77
2023-03-22T09:14:41.930Z,13.05
2023-03-22T09:17:08.857Z,13.38
2023-03-22T09:19:36.931Z,13.07
2023-03-22T09:22:04.144Z,13.23
2023-03-22T09:24:31.280Z,13.43
2023-03-22T09:37:39.809Z,13.35
2023-03-22T09:40:07.956Z,13.00
2023-03-22T09:42:45.875Z,12.98
2023-03-22T09:45:21.071Z,12.88
2023-03-22T09:47:54.182Z,13.13
2023-03-22T09:50:30.147Z,12.77
2023-03-22T09:52:58.598Z,12.65
2023-03-22T09:55:38.731Z,12.88
2023-03-22T09:58:24.174Z,13.07
2023-03-22T10:01:02.310Z,13.35
2023-03-22T10:04:03.958Z,12.95
2023-03-22T10:06:31.884Z,13.23
2023-03-22T10:09:14.796Z,12.63
2023-03-22T10:12:13.646Z,12.75
2023-03-22T10:14:51.377Z,13.07
2023-03-22T10:17:23.648Z,12.70
2023-03-22T10:19:59.181Z,13.10
2023-03-22T10:22:32.360Z,13.65
2023-03-22T10:25:01.012Z,13.05
2023-03-22T10:27:30.454Z,12.65
2023-03-22T10:30:08.496Z,12.73
2023-03-22T10:32:56.785Z,13.05
2023-03-22T10:35:24.448Z,12.60
2023-03-22T10:37:53.049Z,12.60
2023-03-22T10:40:35.451Z,13.52
2023-03-22T10:43:22.588Z,13.23
2023-03-22T10:45:53.361Z,12.48
2023-03-22T10:48:33.689Z,13.18
2023-03-22T10:51:01.581Z,14.65
2023-03-22T10:53:40.077Z,14.65
2023-03-22T10:56:13.601Z,15.07
2023-03-22T10:58:40.597Z,15.20
2023-03-22T11:01:13.671Z,15.18
2023-03-22T11:03:43.047Z,15.10
2023-03-22T11:06:12.585Z,15.10
2023-03-22T11:08:52.107Z,14.27
2023-03-22T11:11:35.573Z,14.27
2023-03-22T11:14:29.266Z,13.95
2023-03-22T11:17:00.393Z,14.00
2023-03-22T11:19:32.482Z,14.10
2023-03-22T11:22:02.339Z,14.07
2023-03-22T11:24:32.571Z,13.75
2023-03-22T11:27:25.922Z,14.45
2023-03-22T11:30:09.762Z,14.60
2023-03-22T11:32:38.770Z,14.80
2023-03-22T11:35:23.199Z,14.70
2023-03-22T11:37:52.351Z,14.90
2023-03-22T11:40:20.948Z,14.68
2023-03-22T11:42:54.191Z,14.10
2023-03-22T11:45:32.958Z,14.63
2023-03-22T11:48:08.982Z,14.48
2023-03-22T11:50:40.092Z,14.43
2023-03-22T11:53:12.492Z,14.65
2023-03-22T11:55:39.761Z,14.88
2023-03-22T11:58:07.034Z,15.15
2023-03-22T12:00:37.860Z,14.85
2023-03-22T12:03:16.405Z,15.57
2023-03-22T12:05:46.726Z,15.20
2023-03-22T12:08:29.085Z,14.57
2023-03-22T12:11:12.436Z,14.60
2023-03-22T12:13:50.133Z,15.70
2023-03-22T12:16:25.107Z,15.38
2023-03-22T12:19:06.758Z,14.23
2023-03-22T12:21:34.688Z,14.60
2023-03-22T12:24:04.491Z,15.68
2023-03-22T12:26:33.756Z,14.50
2023-03-22T12:29:06.914Z,14.75
2023-03-22T12:31:39.041Z,14.85
2023-03-22T12:34:18.909Z,14.75
2023-03-22T12:36:52.676Z,14.55
2023-03-22T12:39:38.006Z,14.38
2023-03-22T12:42:40.675Z,14.27
2023-03-22T12:45:21.129Z,15.23
2023-03-22T12:47:54.023Z,14.55
2023-03-22T12:50:33.879Z,13.95
2023-03-22T12:53:02.510Z,14.20
2023-03-22T12:55:32.474Z,14.48
2023-03-22T12:58:00.544Z,14.38
2023-03-22T13:00:55.977Z,14.52
2023-03-22T13:03:28.927Z,14.80
2023-03-22T13:06:27.355Z,14.68
2023-03-22T13:09:20.004Z,14.60
2023-03-22T13:12:16.725Z,15.38
2023-03-22T13:14:58.872Z,14.93
2023-03-22T13:17:26.163Z,14.48
2023-03-22T13:20:20.100Z,15.65
2023-03-22T13:22:49.795Z,15.63
2023-03-22T13:25:19.828Z,15.30
2023-03-22T13:27:54.190Z,15.45
2023-03-22T13:30:33.366Z,16.08
2023-03-22T13:33:09.763Z,14.98
2023-03-22T13:35:51.312Z,15.88
2023-03-22T13:38:35.387Z,15.50
2023-03-22T13:41:07.274Z,13.55
2023-03-22T13:43:39.019Z,13.65
2023-03-22T13:46:12.105Z,13.10
2023-03-22T13:48:54.973Z,12.90
2023-03-22T13:51:22.159Z,13.35
2023-03-22T13:54:19.168Z,14.07
2023-03-22T13:57:01.644Z,14.07
2023-03-22T14:00:09.422Z,13.40
2023-03-22T14:02:42.188Z,13.38
2023-03-22T14:05:20.773Z,13.18
2023-03-22T14:07:53.480Z,12.90
2023-03-22T14:10:31.230Z,12.95
2023-03-22T14:13:21.264Z,12.98
2023-03-22T14:15:54.319Z,13.88
2023-03-22T14:18:27.129Z,13.75
2023-03-22T14:21:00.344Z,14.05
